sensor_id;sensor_type;location;lat;lon;timestamp;pressure;altitude;pressure_sealevel;temperature;humidity
51259;BME280;37327;54.254;18.504;2023-02-19T00:02:39;100164.85;;;2.41;93.03
51259;BME280;37327;54.254;18.504;2023-02-19T00:05:47;100172.98;;;2.40;93.08
51259;BME280;37327;54.254;18.504;2023-02-19T00:08:54;100168.64;;;2.39;93.22
51259;BME280;37327;54.254;18.504;2023-02-19T00:12:05;100171.45;;;2.37;93.29
51259;BME280;37327;54.254;18.504;2023-02-19T00:15:13;100169.90;;;2.34;93.60
51259;BME280;37327;54.254;18.504;2023-02-19T00:18:20;100180.69;;;2.33;93.82
51259;BME280;37327;54.254;18.504;2023-02-19T00:21:27;100175.36;;;2.33;94.06
51259;BME280;37327;54.254;18.504;2023-02-19T00:24:34;100174.53;;;2.32;94.21
51259;BME280;37327;54.254;18.504;2023-02-19T00:27:41;100188.81;;;2.31;94.30
51259;BME280;37327;54.254;18.504;2023-02-19T00:30:48;100177.32;;;2.31;94.47
51259;BME280;37327;54.254;18.504;2023-02-19T00:33:57;100172.82;;;2.31;94.49
51259;BME280;37327;54.254;18.504;2023-02-19T00:37:04;100179.98;;;2.31;94.72
51259;BME280;37327;54.254;18.504;2023-02-19T00:40:11;100181.94;;;2.29;94.71
51259;BME280;37327;54.254;18.504;2023-02-19T00:43:18;100193.70;;;2.26;94.98
51259;BME280;37327;54.254;18.504;2023-02-19T00:49:38;100192.02;;;2.25;94.99
51259;BME280;37327;54.254;18.504;2023-02-19T00:52:45;100194.82;;;2.24;95.01
51259;BME280;37327;54.254;18.504;2023-02-19T00:55:52;100182.62;;;2.21;95.01
51259;BME280;37327;54.254;18.504;2023-02-19T00:58:59;100188.21;;;2.18;95.04
51259;BME280;37327;54.254;18.504;2023-02-19T01:02:06;100185.84;;;2.15;95.22
51259;BME280;37327;54.254;18.504;2023-02-19T01:05:12;100177.40;;;2.10;95.27
51259;BME280;37327;54.254;18.504;2023-02-19T01:08:20;100175.98;;;2.06;95.43
51259;BME280;37327;54.254;18.504;2023-02-19T01:11:27;100168.25;;;2.03;95.63
51259;BME280;37327;54.254;18.504;2023-02-19T01:14:35;100165.16;;;1.97;95.78
51259;BME280;37327;54.254;18.504;2023-02-19T01:17:41;100165.42;;;1.94;95.90
51259;BME280;37327;54.254;18.504;2023-02-19T01:20:48;100164.97;;;1.89;96.27
51259;BME280;37327;54.254;18.504;2023-02-19T01:23:56;100169.59;;;1.87;96.57
51259;BME280;37327;54.254;18.504;2023-02-19T01:27:04;100162.59;;;1.86;96.76
51259;BME280;37327;54.254;18.504;2023-02-19T01:30:12;100174.91;;;1.87;97.04
51259;BME280;37327;54.254;18.504;2023-02-19T01:33:19;100180.11;;;1.89;97.24
51259;BME280;37327;54.254;18.504;2023-02-19T01:36:26;100187.71;;;1.93;97.33
51259;BME280;37327;54.254;18.504;2023-02-19T01:39:34;100186.72;;;1.94;97.40
51259;BME280;37327;54.254;18.504;2023-02-19T01:42:43;100188.13;;;1.98;97.43
51259;BME280;37327;54.254;18.504;2023-02-19T01:45:50;100178.91;;;2.03;97.44
51259;BME280;37327;54.254;18.504;2023-02-19T01:49:05;100166.30;;;2.05;97.44
51259;BME280;37327;54.254;18.504;2023-02-19T01:52:18;100170.37;;;2.09;97.34
51259;BME280;37327;54.254;18.504;2023-02-19T01:55:27;100178.09;;;2.12;97.24
51259;BME280;37327;54.254;18.504;2023-02-19T01:58:35;100173.48;;;2.14;97.09
51259;BME280;37327;54.254;18.504;2023-02-19T02:01:44;100175.89;;;2.17;96.87
51259;BME280;37327;54.254;18.504;2023-02-19T02:04:51;100173.92;;;2.19;96.87
51259;BME280;37327;54.254;18.504;2023-02-19T02:07:59;100174.63;;;2.21;96.73
51259;BME280;37327;54.254;18.504;2023-02-19T02:11:20;100178.96;;;2.22;96.68
51259;BME280;37327;54.254;18.504;2023-02-19T02:14:31;100162.98;;;2.22;96.63
51259;BME280;37327;54.254;18.504;2023-02-19T02:17:50;100167.21;;;2.25;96.49
51259;BME280;37327;54.254;18.504;2023-02-19T02:34:23;100170.16;;;2.31;95.64
51259;BME280;37327;54.254;18.504;2023-02-19T02:37:34;100155.88;;;2.32;95.44
51259;BME280;37327;54.254;18.504;2023-02-19T02:40:43;100161.91;;;2.34;95.38
51259;BME280;37327;54.254;18.504;2023-02-19T02:43:51;100149.42;;;2.35;94.99
51259;BME280;37327;54.254;18.504;2023-02-19T02:46:58;100146.76;;;2.35;94.64
51259;BME280;37327;54.254;18.504;2023-02-19T02:50:11;100143.27;;;2.34;94.24
51259;BME280;37327;54.254;18.504;2023-02-19T02:53:31;100148.59;;;2.34;94.41
51259;BME280;37327;54.254;18.504;2023-02-19T02:56:50;100154.62;;;2.36;94.38
51259;BME280;37327;54.254;18.504;2023-02-19T02:59:58;100154.62;;;2.36;94.31
51259;BME280;37327;54.254;18.504;2023-02-19T03:03:05;100150.96;;;2.37;94.41
51259;BME280;37327;54.254;18.504;2023-02-19T03:06:15;100157.29;;;2.36;94.17
51259;BME280;37327;54.254;18.504;2023-02-19T03:12:39;100163.31;;;2.39;94.33
51259;BME280;37327;54.254;18.504;2023-02-19T03:16:10;100165.98;;;2.39;94.20
51259;BME280;37327;54.254;18.504;2023-02-19T03:19:35;100165.12;;;2.38;94.27
51259;BME280;37327;54.254;18.504;2023-02-19T03:22:45;100159.66;;;2.40;94.17
51259;BME280;37327;54.254;18.504;2023-02-19T03:25:54;100163.16;;;2.40;94.01
51259;BME280;37327;54.254;18.504;2023-02-19T03:29:11;100179.85;;;2.42;93.80
51259;BME280;37327;54.254;18.504;2023-02-19T03:32:39;100172.85;;;2.41;93.60
51259;BME280;37327;54.254;18.504;2023-02-19T03:35:56;100172.02;;;2.41;93.23
51259;BME280;37327;54.254;18.504;2023-02-19T03:39:07;100175.38;;;2.43;93.16
51259;BME280;37327;54.254;18.504;2023-02-19T03:42:29;100179.01;;;2.42;93.18
51259;BME280;37327;54.254;18.504;2023-02-19T03:45:43;100168.36;;;2.42;92.78
51259;BME280;37327;54.254;18.504;2023-02-19T03:55:39;100161.36;;;2.41;92.43
51259;BME280;37327;54.254;18.504;2023-02-19T03:59:00;100166.81;;;2.39;92.43
51259;BME280;37327;54.254;18.504;2023-02-19T04:05:30;100172.27;;;2.37;92.33
51259;BME280;37327;54.254;18.504;2023-02-19T04:08:41;100164.57;;;2.34;92.26
51259;BME280;37327;54.254;18.504;2023-02-19T04:11:50;100167.49;;;2.31;92.39
51259;BME280;37327;54.254;18.504;2023-02-19T04:15:03;100157.97;;;2.29;92.51
51259;BME280;37327;54.254;18.504;2023-02-19T04:18:24;100155.70;;;2.24;92.70
51259;BME280;37327;54.254;18.504;2023-02-19T04:21:33;100153.32;;;2.21;92.80
51259;BME280;37327;54.254;18.504;2023-02-19T04:24:47;100159.90;;;2.17;93.04
51259;BME280;37327;54.254;18.504;2023-02-19T04:27:55;100138.85;;;2.14;93.10
51259;BME280;37327;54.254;18.504;2023-02-19T04:31:02;100142.78;;;2.10;93.26
51259;BME280;37327;54.254;18.504;2023-02-19T04:34:09;100150.89;;;2.08;93.52
51259;BME280;37327;54.254;18.504;2023-02-19T04:37:15;100144.03;;;2.06;93.62
51259;BME280;37327;54.254;18.504;2023-02-19T04:40:22;100147.65;;;2.05;93.80
51259;BME280;37327;54.254;18.504;2023-02-19T04:43:29;100144.29;;;2.03;93.86
51259;BME280;37327;54.254;18.504;2023-02-19T04:46:36;100143.58;;;2.01;93.95
51259;BME280;37327;54.254;18.504;2023-02-19T04:49:43;100137.55;;;1.98;94.14
51259;BME280;37327;54.254;18.504;2023-02-19T04:52:51;100147.50;;;1.96;94.18
51259;BME280;37327;54.254;18.504;2023-02-19T04:58:00;100148.73;;;1.92;94.52
51259;BME280;37327;54.254;18.504;2023-02-19T05:01:07;100149.71;;;1.91;94.70
51259;BME280;37327;54.254;18.504;2023-02-19T05:04:14;100146.33;;;1.89;94.80
51259;BME280;37327;54.254;18.504;2023-02-19T05:07:21;100148.30;;;1.87;94.88
51259;BME280;37327;54.254;18.504;2023-02-19T05:10:28;100146.76;;;1.85;95.10
51259;BME280;37327;54.254;18.504;2023-02-19T05:13:36;100154.16;;;1.81;95.31
51259;BME280;37327;54.254;18.504;2023-02-19T05:16:44;100150.79;;;1.79;95.51
51259;BME280;37327;54.254;18.504;2023-02-19T05:19:51;100159.77;;;1.78;95.80
51259;BME280;37327;54.254;18.504;2023-02-19T05:22:58;100161.73;;;1.76;96.13
51259;BME280;37327;54.254;18.504;2023-02-19T05:26:10;100151.33;;;1.73;96.50
51259;BME280;37327;54.254;18.504;2023-02-19T05:29:17;100163.92;;;1.71;96.76
51259;BME280;37327;54.254;18.504;2023-02-19T05:32:24;100158.61;;;1.71;96.92
51259;BME280;37327;54.254;18.504;2023-02-19T05:35:31;100169.26;;;1.71;97.02
51259;BME280;37327;54.254;18.504;2023-02-19T05:38:39;100161.27;;;1.71;97.24
51259;BME280;37327;54.254;18.504;2023-02-19T05:41:46;100172.03;;;1.69;97.33
51259;BME280;37327;54.254;18.504;2023-02-19T05:44:53;100163.92;;;1.71;97.42
51259;BME280;37327;54.254;18.504;2023-02-19T05:47:59;100169.26;;;1.71;97.46
51259;BME280;37327;54.254;18.504;2023-02-19T05:51:10;100169.26;;;1.71;97.50
51259;BME280;37327;54.254;18.504;2023-02-19T05:54:17;100169.26;;;1.71;97.48
51259;BME280;37327;54.254;18.504;2023-02-19T05:57:24;100178.08;;;1.71;97.59
51259;BME280;37327;54.254;18.504;2023-02-19T06:00:32;100174.57;;;1.71;97.68
51259;BME280;37327;54.254;18.504;2023-02-19T06:03:39;100174.82;;;1.68;97.82
51259;BME280;37327;54.254;18.504;2023-02-19T06:06:46;100186.34;;;1.68;98.03
51259;BME280;37327;54.254;18.504;2023-02-19T06:09:54;100176.52;;;1.69;98.03
51259;BME280;37327;54.254;18.504;2023-02-19T06:13:01;100183.52;;;1.70;98.05
51259;BME280;37327;54.254;18.504;2023-02-19T06:16:08;100185.22;;;1.71;98.05
51259;BME280;37327;54.254;18.504;2023-02-19T06:19:16;100191.38;;;1.71;98.04
51259;BME280;37327;54.254;18.504;2023-02-19T06:22:23;100200.23;;;1.72;98.03
51259;BME280;37327;54.254;18.504;2023-02-19T06:25:30;100204.56;;;1.73;97.96
51259;BME280;37327;54.254;18.504;2023-02-19T06:28:38;100202.73;;;1.73;97.91
51259;BME280;37327;54.254;18.504;2023-02-19T06:31:45;100199.95;;;1.75;97.85
51259;BME280;37327;54.254;18.504;2023-02-19T06:34:52;100198.83;;;1.77;97.81
51259;BME280;37327;54.254;18.504;2023-02-19T06:37:59;100213.71;;;1.80;97.74
51259;BME280;37327;54.254;18.504;2023-02-19T06:41:07;100211.76;;;1.82;97.54
51259;BME280;37327;54.254;18.504;2023-02-19T06:44:14;100216.95;;;1.84;97.62
51259;BME280;37327;54.254;18.504;2023-02-19T06:47:21;100221.16;;;1.86;97.57
51259;BME280;37327;54.254;18.504;2023-02-19T06:50:28;100219.21;;;1.88;97.55
51259;BME280;37327;54.254;18.504;2023-02-19T06:53:35;100221.59;;;1.91;97.44
51259;BME280;37327;54.254;18.504;2023-02-19T06:56:42;100227.37;;;1.96;97.40
51259;BME280;37327;54.254;18.504;2023-02-19T06:59:48;100241.26;;;2.00;97.44
51259;BME280;37327;54.254;18.504;2023-02-19T07:02:55;100241.71;;;2.05;97.32
51259;BME280;37327;54.254;18.504;2023-02-19T07:06:06;100248.59;;;2.08;97.36
51259;BME280;37327;54.254;18.504;2023-02-19T07:09:13;100256.58;;;2.08;97.60
51259;BME280;37327;54.254;18.504;2023-02-19T07:19:46;100256.99;;;2.03;100.00
51259;BME280;37327;54.254;18.504;2023-02-19T07:22:53;100262.15;;;2.05;100.00
51259;BME280;37327;54.254;18.504;2023-02-19T07:26:03;100260.20;;;2.07;100.00
51259;BME280;37327;54.254;18.504;2023-02-19T07:29:11;100277.76;;;2.09;100.00
51259;BME280;37327;54.254;18.504;2023-02-19T07:32:18;100276.52;;;2.13;100.00
51259;BME280;37327;54.254;18.504;2023-02-19T07:35:25;100279.18;;;2.13;100.00
51259;BME280;37327;54.254;18.504;2023-02-19T07:38:31;100282.66;;;2.14;100.00
51259;BME280;37327;54.254;18.504;2023-02-19T07:41:38;100286.76;;;2.18;100.00
51259;BME280;37327;54.254;18.504;2023-02-19T07:44:45;100297.87;;;2.23;100.00
51259;BME280;37327;54.254;18.504;2023-02-19T07:47:52;100297.59;;;2.26;100.00
51259;BME280;37327;54.254;18.504;2023-02-19T07:50:59;100296.33;;;2.30;100.00
51259;BME280;37327;54.254;18.504;2023-02-19T07:54:07;100301.28;;;2.35;100.00
51259;BME280;37327;54.254;18.504;2023-02-19T07:57:14;100302.57;;;2.41;100.00
51259;BME280;37327;54.254;18.504;2023-02-19T08:00:21;100306.66;;;2.45;99.95
51259;BME280;37327;54.254;18.504;2023-02-19T08:03:28;100302.45;;;2.52;99.68
51259;BME280;37327;54.254;18.504;2023-02-19T08:06:35;100305.70;;;2.55;99.44
51259;BME280;37327;54.254;18.504;2023-02-19T08:09:42;100305.31;;;2.60;98.88
51259;BME280;37327;54.254;18.504;2023-02-19T08:12:58;100304.31;;;2.61;98.33
51259;BME280;37327;54.254;18.504;2023-02-19T08:16:18;100314.58;;;2.66;97.91
51259;BME280;37327;54.254;18.504;2023-02-19T08:19:26;100316.00;;;2.70;97.77
51259;BME280;37327;54.254;18.504;2023-02-19T08:22:33;100322.46;;;2.77;97.71
51259;BME280;37327;54.254;18.504;2023-02-19T08:25:41;100325.57;;;2.82;97.44
51259;BME280;37327;54.254;18.504;2023-02-19T08:28:48;100322.64;;;2.85;97.05
51259;BME280;37327;54.254;18.504;2023-02-19T08:31:55;100333.02;;;2.88;96.99
51259;BME280;37327;54.254;18.504;2023-02-19T08:35:02;100331.18;;;2.89;96.50
51259;BME280;37327;54.254;18.504;2023-02-19T08:38:10;100338.93;;;2.92;96.18
51259;BME280;37327;54.254;18.504;2023-02-19T08:41:17;100340.34;;;2.96;95.86
51259;BME280;37327;54.254;18.504;2023-02-19T08:44:25;100351.19;;;3.14;95.57
51259;BME280;37327;54.254;18.504;2023-02-19T08:47:34;100349.53;;;3.23;94.67
51259;BME280;37327;54.254;18.504;2023-02-19T08:50:41;100354.87;;;3.23;93.53
51259;BME280;37327;54.254;18.504;2023-02-19T08:53:48;100359.20;;;3.24;92.91
51259;BME280;37327;54.254;18.504;2023-02-19T08:56:55;100366.50;;;3.22;92.27
51259;BME280;37327;54.254;18.504;2023-02-19T09:00:04;100368.21;;;3.23;91.85
51259;BME280;37327;54.254;18.504;2023-02-19T09:03:11;100372.28;;;3.27;91.61
51259;BME280;37327;54.254;18.504;2023-02-19T09:06:19;100377.33;;;3.30;91.15
51259;BME280;37327;54.254;18.504;2023-02-19T09:09:27;100378.76;;;3.34;90.36
51259;BME280;37327;54.254;18.504;2023-02-19T09:12:33;100386.63;;;3.45;90.39
51259;BME280;37327;54.254;18.504;2023-02-19T09:15:40;100380.19;;;3.58;89.55
51259;BME280;37327;54.254;18.504;2023-02-19T09:18:47;100374.84;;;3.58;88.01
51259;BME280;37327;54.254;18.504;2023-02-19T09:21:54;100384.53;;;3.59;87.79
51259;BME280;37327;54.254;18.504;2023-02-19T09:25:01;100384.26;;;3.62;87.04
51259;BME280;37327;54.254;18.504;2023-02-19T09:28:08;100380.73;;;3.61;86.54
51259;BME280;37327;54.254;18.504;2023-02-19T09:31:15;100385.80;;;3.64;86.26
51259;BME280;37327;54.254;18.504;2023-02-19T09:34:24;100391.71;;;3.68;85.63
51259;BME280;37327;54.254;18.504;2023-02-19T09:37:31;100400.55;;;3.68;85.02
51259;BME280;37327;54.254;18.504;2023-02-19T09:40:38;100394.24;;;3.79;85.03
51259;BME280;37327;54.254;18.504;2023-02-19T09:43:45;100398.71;;;3.98;84.76
51259;BME280;37327;54.254;18.504;2023-02-19T09:46:53;100400.11;;;4.12;83.74
51259;BME280;37327;54.254;18.504;2023-02-19T09:50:07;100379.70;;;4.30;82.99
51259;BME280;37327;54.254;18.504;2023-02-19T09:53:23;100410.06;;;4.29;79.79
51259;BME280;37327;54.254;18.504;2023-02-19T09:56:31;100405.88;;;4.17;78.27
51259;BME280;37327;54.254;18.504;2023-02-19T09:59:43;100412.63;;;4.11;78.61
51259;BME280;37327;54.254;18.504;2023-02-19T10:02:53;100407.84;;;4.15;78.09
51259;BME280;37327;54.254;18.504;2023-02-19T10:06:06;100411.65;;;4.22;78.50
51259;BME280;37327;54.254;18.504;2023-02-19T10:09:21;100419.80;;;4.21;76.80
51259;BME280;37327;54.254;18.504;2023-02-19T10:12:31;100430.20;;;4.14;76.80
51259;BME280;37327;54.254;18.504;2023-02-19T10:15:55;100438.52;;;4.11;76.69
51259;BME280;37327;54.254;18.504;2023-02-19T10:18:57;100430.64;;;4.00;75.44
51259;BME280;37327;54.254;18.504;2023-02-19T10:22:04;100435.71;;;3.93;75.44
51259;BME280;37327;54.254;18.504;2023-02-19T10:25:15;100433.31;;;4.00;75.41
51259;BME280;37327;54.254;18.504;2023-02-19T10:28:29;100433.86;;;4.13;74.56
51259;BME280;37327;54.254;18.504;2023-02-19T10:31:37;100428.50;;;4.32;74.11
51259;BME280;37327;54.254;18.504;2023-02-19T10:34:44;100431.41;;;4.49;72.44
51259;BME280;37327;54.254;18.504;2023-02-19T10:37:51;100428.70;;;4.68;72.39
51259;BME280;37327;54.254;18.504;2023-02-19T10:41:05;100431.88;;;4.82;71.50
51259;BME280;37327;54.254;18.504;2023-02-19T10:44:25;100442.48;;;4.73;70.62
51259;BME280;37327;54.254;18.504;2023-02-19T10:47:33;100442.95;;;4.59;70.46
51259;BME280;37327;54.254;18.504;2023-02-19T10:50:41;100446.48;;;4.50;69.73
51259;BME280;37327;54.254;18.504;2023-02-19T11:00:39;100449.49;;;4.74;67.23
51259;BME280;37327;54.254;18.504;2023-02-19T11:03:49;100446.99;;;5.10;65.91
51259;BME280;37327;54.254;18.504;2023-02-19T11:06:56;100457.83;;;5.09;65.01
51259;BME280;37327;54.254;18.504;2023-02-19T11:10:05;100462.73;;;5.13;65.67
51259;BME280;37327;54.254;18.504;2023-02-19T11:16:49;100472.60;;;5.41;62.53
51259;BME280;37327;54.254;18.504;2023-02-19T11:20:03;100475.35;;;5.59;63.39
51259;BME280;37327;54.254;18.504;2023-02-19T11:23:23;100472.23;;;5.81;62.92
51259;BME280;37327;54.254;18.504;2023-02-19T11:26:31;100474.70;;;5.92;62.83
51259;BME280;37327;54.254;18.504;2023-02-19T11:29:43;100470.80;;;6.05;62.00
51259;BME280;37327;54.254;18.504;2023-02-19T11:32:50;100476.09;;;6.15;60.49
51259;BME280;37327;54.254;18.504;2023-02-19T11:39:20;100492.79;;;6.26;58.89
51259;BME280;37327;54.254;18.504;2023-02-19T11:42:44;100487.65;;;6.15;58.35
51259;BME280;37327;54.254;18.504;2023-02-19T11:49:26;100491.30;;;5.78;58.57
51259;BME280;37327;54.254;18.504;2023-02-19T11:52:41;100496.88;;;5.85;58.03
51259;BME280;37327;54.254;18.504;2023-02-19T11:56:01;100491.75;;;5.91;57.77
51259;BME280;37327;54.254;18.504;2023-02-19T11:59:16;100500.21;;;5.97;57.20
51259;BME280;37327;54.254;18.504;2023-02-19T12:12:36;100503.20;;;5.66;53.05
51259;BME280;37327;54.254;18.504;2023-02-19T12:22:38;100520.00;;;5.30;54.04
51259;BME280;37327;54.254;18.504;2023-02-19T12:35:47;100545.53;;;4.48;54.85
51259;BME280;37327;54.254;18.504;2023-02-19T12:39:07;100553.42;;;4.40;54.12
51259;BME280;37327;54.254;18.504;2023-02-19T12:49:05;100577.91;;;4.35;54.58
51259;BME280;37327;54.254;18.504;2023-02-19T12:52:26;100566.09;;;4.28;54.87
51259;BME280;37327;54.254;18.504;2023-02-19T12:55:41;100570.86;;;4.25;54.95
51259;BME280;37327;54.254;18.504;2023-02-19T12:59:13;100588.28;;;4.19;54.97
51259;BME280;37327;54.254;18.504;2023-02-19T13:08:56;100582.64;;;4.03;55.97
51259;BME280;37327;54.254;18.504;2023-02-19T13:18:47;100585.61;;;4.19;56.40
51259;BME280;37327;54.254;18.504;2023-02-19T13:22:06;100589.30;;;4.28;56.36
51259;BME280;37327;54.254;18.504;2023-02-19T13:28:58;100584.93;;;4.37;54.44
51259;BME280;37327;54.254;18.504;2023-02-19T13:38:46;100591.55;;;4.42;52.59
51259;BME280;37327;54.254;18.504;2023-02-19T13:41:56;100599.70;;;4.41;52.27
51259;BME280;37327;54.254;18.504;2023-02-19T13:45:18;100611.66;;;4.37;52.67
51259;BME280;37327;54.254;18.504;2023-02-19T13:48:32;100621.52;;;4.36;52.30
51259;BME280;37327;54.254;18.504;2023-02-19T13:51:46;100623.19;;;4.37;51.83
51259;BME280;37327;54.254;18.504;2023-02-19T14:04:54;100630.46;;;4.15;51.28
51259;BME280;37327;54.254;18.504;2023-02-19T14:08:02;100643.25;;;4.12;50.00
51259;BME280;37327;54.254;18.504;2023-02-19T14:11:09;100659.45;;;4.10;50.17
51259;BME280;37327;54.254;18.504;2023-02-19T14:17:43;100656.64;;;4.22;48.52
51259;BME280;37327;54.254;18.504;2023-02-19T14:21:04;100654.48;;;4.06;49.05
51259;BME280;37327;54.254;18.504;2023-02-19T14:24:13;100660.22;;;3.91;49.96
51259;BME280;37327;54.254;18.504;2023-02-19T14:27:20;100662.72;;;3.83;50.72
51259;BME280;37327;54.254;18.504;2023-02-19T14:30:29;100679.41;;;3.75;50.78
51259;BME280;37327;54.254;18.504;2023-02-19T14:36:58;100671.43;;;3.54;49.91
51259;BME280;37327;54.254;18.504;2023-02-19T14:40:16;100662.25;;;3.47;50.40
51259;BME280;37327;54.254;18.504;2023-02-19T14:43:24;100666.28;;;3.42;50.65
51259;BME280;37327;54.254;18.504;2023-02-19T14:53:14;100685.00;;;3.21;51.88
51259;BME280;37327;54.254;18.504;2023-02-19T14:56:26;100682.58;;;3.18;52.52
51259;BME280;37327;54.254;18.504;2023-02-19T14:59:34;100698.85;;;3.14;52.75
51259;BME280;37327;54.254;18.504;2023-02-19T15:02:42;100701.18;;;3.08;53.06
51259;BME280;37327;54.254;18.504;2023-02-19T15:05:57;100710.80;;;2.99;53.41
51259;BME280;37327;54.254;18.504;2023-02-19T15:09:06;100702.45;;;2.92;53.50
51259;BME280;37327;54.254;18.504;2023-02-19T15:12:20;100710.12;;;2.86;53.33
51259;BME280;37327;54.254;18.504;2023-02-19T15:15:31;100715.11;;;2.79;53.08
51259;BME280;37327;54.254;18.504;2023-02-19T15:18:44;100720.94;;;2.73;52.74
51259;BME280;37327;54.254;18.504;2023-02-19T15:21:51;100724.12;;;2.67;53.13
51259;BME280;37327;54.254;18.504;2023-02-19T15:25:02;100729.12;;;2.60;53.18
51259;BME280;37327;54.254;18.504;2023-02-19T15:31:28;100730.23;;;2.46;53.29
51259;BME280;37327;54.254;18.504;2023-02-19T15:34:35;100746.45;;;2.43;53.97
51259;BME280;37327;54.254;18.504;2023-02-19T15:37:42;100745.86;;;2.40;54.47
51259;BME280;37327;54.254;18.504;2023-02-19T15:40:49;100747.20;;;2.34;54.95
51259;BME280;37327;54.254;18.504;2023-02-19T15:44:12;100748.52;;;2.28;55.26
51259;BME280;37327;54.254;18.504;2023-02-19T15:50:43;100756.39;;;2.18;56.05
51259;BME280;37327;54.254;18.504;2023-02-19T15:53:57;100762.94;;;2.14;56.38
51259;BME280;37327;54.254;18.504;2023-02-19T15:57:13;100774.80;;;2.10;56.94
51259;BME280;37327;54.254;18.504;2023-02-19T16:00:35;100766.20;;;2.07;57.30
51259;BME280;37327;54.254;18.504;2023-02-19T16:03:43;100763.91;;;2.02;57.49
51259;BME280;37327;54.254;18.504;2023-02-19T16:06:57;100770.55;;;1.96;57.64
51259;BME280;37327;54.254;18.504;2023-02-19T16:13:25;100781.92;;;1.87;58.33
51259;BME280;37327;54.254;18.504;2023-02-19T16:16:38;100781.34;;;1.84;58.97
51259;BME280;37327;54.254;18.504;2023-02-19T16:19:51;100798.63;;;1.78;59.26
51259;BME280;37327;54.254;18.504;2023-02-19T16:23:12;100790.98;;;1.73;59.83
51259;BME280;37327;54.254;18.504;2023-02-19T16:26:16;100804.76;;;1.67;60.47
51259;BME280;37327;54.254;18.504;2023-02-19T16:29:29;100804.87;;;1.66;60.76
51259;BME280;37327;54.254;18.504;2023-02-19T16:32:37;100815.03;;;1.61;61.45
51259;BME280;37327;54.254;18.504;2023-02-19T16:35:44;100826.88;;;1.56;61.68
51259;BME280;37327;54.254;18.504;2023-02-19T16:42:18;100824.79;;;1.49;62.87
51259;BME280;37327;54.254;18.504;2023-02-19T16:45:25;100822.24;;;1.47;63.10
51259;BME280;37327;54.254;18.504;2023-02-19T16:48:32;100819.69;;;1.46;63.42
51259;BME280;37327;54.254;18.504;2023-02-19T16:51:39;100824.50;;;1.41;63.63
51259;BME280;37327;54.254;18.504;2023-02-19T16:54:47;100821.97;;;1.39;64.21
51259;BME280;37327;54.254;18.504;2023-02-19T16:57:55;100819.78;;;1.33;64.37
51259;BME280;37327;54.254;18.504;2023-02-19T17:01:01;100821.91;;;1.28;64.67
51259;BME280;37327;54.254;18.504;2023-02-19T17:04:10;100820.20;;;1.27;64.81
51259;BME280;37327;54.254;18.504;2023-02-19T17:07:20;100815.23;;;1.22;65.21
51259;BME280;37327;54.254;18.504;2023-02-19T17:10:28;100824.31;;;1.20;65.57
51259;BME280;37327;54.254;18.504;2023-02-19T17:13:35;100825.25;;;1.18;65.82
51259;BME280;37327;54.254;18.504;2023-02-19T17:16:42;100814.72;;;1.17;65.97
51259;BME280;37327;54.254;18.504;2023-02-19T17:19:49;100814.97;;;1.14;66.23
51259;BME280;37327;54.254;18.504;2023-02-19T17:22:56;100816.27;;;1.08;66.65
51259;BME280;37327;54.254;18.504;2023-02-19T17:26:04;100823.72;;;1.03;66.76
51259;BME280;37327;54.254;18.504;2023-02-19T17:29:13;100816.72;;;1.02;66.86
51259;BME280;37327;54.254;18.504;2023-02-19T17:32:22;100824.80;;;1.01;67.10
51259;BME280;37327;54.254;18.504;2023-02-19T17:35:30;100814.38;;;0.97;67.38
51259;BME280;37327;54.254;18.504;2023-02-19T17:38:37;100818.13;;;0.95;67.57
51259;BME280;37327;54.254;18.504;2023-02-19T17:41:44;100812.07;;;0.93;67.81
51259;BME280;37327;54.254;18.504;2023-02-19T17:44:51;100813.05;;;0.92;68.12
51259;BME280;37327;54.254;18.504;2023-02-19T17:47:59;100815.91;;;0.89;68.35
51259;BME280;37327;54.254;18.504;2023-02-19T17:51:06;100820.60;;;0.85;68.58
51259;BME280;37327;54.254;18.504;2023-02-19T17:54:13;100826.02;;;0.84;68.89
51259;BME280;37327;54.254;18.504;2023-02-19T17:57:20;100826.99;;;0.83;69.19
51259;BME280;37327;54.254;18.504;2023-02-19T18:00:29;100828.91;;;0.81;69.43
51259;BME280;37327;54.254;18.504;2023-02-19T18:03:38;100824.65;;;0.78;69.85
51259;BME280;37327;54.254;18.504;2023-02-19T18:06:45;100818.50;;;0.77;70.19
51259;BME280;37327;54.254;18.504;2023-02-19T18:09:53;100824.65;;;0.78;70.53
51259;BME280;37327;54.254;18.504;2023-02-19T18:13:00;100823.81;;;0.77;70.80
51259;BME280;37327;54.254;18.504;2023-02-19T18:16:07;100836.16;;;0.78;71.15
51259;BME280;37327;54.254;18.504;2023-02-19T18:19:15;100838.68;;;0.80;71.42
51259;BME280;37327;54.254;18.504;2023-02-19T18:22:22;100829.13;;;0.77;71.82
51259;BME280;37327;54.254;18.504;2023-02-19T18:25:29;100829.13;;;0.77;72.11
51259;BME280;37327;54.254;18.504;2023-02-19T18:28:37;100830.84;;;0.78;72.63
51259;BME280;37327;54.254;18.504;2023-02-19T18:31:44;100827.20;;;0.79;73.11
51259;BME280;37327;54.254;18.504;2023-02-19T18:34:53;100830.70;;;0.80;73.47
51259;BME280;37327;54.254;18.504;2023-02-19T18:38:01;100822.63;;;0.82;73.98
51259;BME280;37327;54.254;18.504;2023-02-19T18:41:11;100832.31;;;0.83;74.38
51259;BME280;37327;54.254;18.504;2023-02-19T18:44:23;100822.52;;;0.83;75.07
51259;BME280;37327;54.254;18.504;2023-02-19T18:47:30;100814.66;;;0.82;75.63
51259;BME280;37327;54.254;18.504;2023-02-19T18:50:37;100810.07;;;0.84;76.27
51259;BME280;37327;54.254;18.504;2023-02-19T18:53:44;100809.86;;;0.87;76.70
51259;BME280;37327;54.254;18.504;2023-02-19T18:56:51;100818.68;;;0.87;77.24
51259;BME280;37327;54.254;18.504;2023-02-19T18:59:58;100813.15;;;0.90;77.64
51259;BME280;37327;54.254;18.504;2023-02-19T19:03:05;100824.42;;;0.94;78.26